Time;durP1;ratioP1;P1;durP2;ratioP2;P2;SDS_P1;SDS_P2;PMS_P1;PMS_P2;Temp;Humidity;BMP_temperature;BMP_pressure;BME280_temperature;BME280_humidity;BME280_pressure;Samples;Min_cycle;Max_cycle;Signal;HPM_P1;HPM_P2
2022/08/18 00:00:48;;;;;;;10.17;7.17;;;19.40;52.20;;;;;;4998303;28;46410;-64
2022/08/18 00:03:14;;;;;;;11.90;8.30;;;19.40;53.00;;;;;;4999156;28;46605;-64
2022/08/18 00:05:39;;;;;;;18.53;8.83;;;19.30;53.00;;;;;;4999387;28;46378;-65
2022/08/18 00:08:05;;;;;;;11.90;7.83;;;19.30;53.00;;;;;;5000058;28;47202;-64
2022/08/18 00:10:32;;;;;;;12.73;7.53;;;19.30;52.40;;;;;;4997313;28;45825;-66
2022/08/18 00:12:58;;;;;;;10.40;7.40;;;19.40;53.20;;;;;;5000661;28;46404;-64
2022/08/18 00:15:24;;;;;;;12.10;8.00;;;19.40;53.30;;;;;;5000220;28;46233;-64
2022/08/18 00:17:50;;;;;;;10.37;7.63;;;19.40;53.30;;;;;;5000543;28;47195;-64
2022/08/18 00:20:21;;;;;;;12.57;7.40;;;19.40;52.40;;;;;;5000358;28;46459;-64
2022/08/18 00:22:47;;;;;;;12.00;7.90;;;19.50;53.20;;;;;;5001183;28;46564;-65
2022/08/18 00:25:14;;;;;;;9.13;7.40;;;19.50;53.00;;;;;;4999349;28;45825;-65
2022/08/18 00:27:40;;;;;;;10.20;6.73;;;19.50;53.10;;;;;;4998541;28;46478;-65
2022/08/18 00:30:09;;;;;;;12.30;7.60;;;19.40;52.70;;;;;;5000642;28;46458;-64
2022/08/18 00:32:41;;;;;;;15.10;7.27;;;19.40;53.60;;;;;;4993769;28;46247;-64
2022/08/18 00:35:09;;;;;;;10.80;7.60;;;19.30;53.70;;;;;;4995934;28;46491;-63
2022/08/18 00:37:35;;;;;;;9.80;7.30;;;19.30;53.40;;;;;;4999142;28;46435;-64
2022/08/18 00:40:02;;;;;;;9.63;7.30;;;19.40;52.70;;;;;;4997039;28;46516;-64
2022/08/18 00:42:28;;;;;;;11.90;8.20;;;19.40;54.90;;;;;;4999087;28;45974;-63
2022/08/18 00:44:55;;;;;;;11.40;8.23;;;19.40;53.30;;;;;;4999718;28;46629;-64
2022/08/18 00:47:21;;;;;;;15.27;7.57;;;19.30;53.40;;;;;;5000341;28;47395;-64
2022/08/18 00:49:50;;;;;;;11.20;7.23;;;19.30;52.80;;;;;;5000823;28;46382;-65
2022/08/18 00:52:16;;;;;;;11.10;7.73;;;19.30;53.60;;;;;;5004121;28;46307;-63
2022/08/18 00:54:43;;;;;;;11.73;7.27;;;19.20;53.70;;;;;;4999406;28;46304;-66
2022/08/18 00:57:11;;;;;;;12.83;8.40;;;19.20;54.10;;;;;;4998716;28;48035;-63
2022/08/18 00:59:47;;;;;;;10.63;7.63;;;19.00;53.70;;;;;;4997606;28;46805;-63
2022/08/18 01:02:36;;;;;;;15.40;9.03;;;19.00;54.60;;;;;;4999557;28;46400;-63
2022/08/18 01:05:12;;;;;;;10.37;7.03;;;19.00;55.10;;;;;;4997415;28;46707;-63
2022/08/18 01:07:45;;;;;;;12.90;8.33;;;19.00;54.90;;;;;;4998560;28;46587;-64
2022/08/18 01:10:15;;;;;;;10.50;7.93;;;19.00;54.30;;;;;;4999559;28;45880;-64
2022/08/18 01:12:46;;;;;;;12.13;8.97;;;18.90;55.00;;;;;;4999171;28;46632;-65
2022/08/18 01:15:13;;;;;;;13.03;9.20;;;18.90;55.20;;;;;;5002408;28;46377;-63
2022/08/18 01:23:28;;;;;;;11.40;9.00;;;18.90;55.20;;;;;;4999761;28;46555;-63
2022/08/18 01:26:00;;;;;;;13.03;8.80;;;18.90;54.80;;;;;;5002636;28;46292;-64
2022/08/18 01:28:45;;;;;;;17.53;10.03;;;19.00;55.00;;;;;;5001549;28;46437;-64
2022/08/18 01:31:27;;;;;;;11.10;8.87;;;18.90;54.20;;;;;;5002518;28;46640;-64
2022/08/18 01:33:53;;;;;;;14.77;9.83;;;18.80;55.10;;;;;;5001574;28;46277;-63
2022/08/18 01:36:20;;;;;;;13.27;8.80;;;18.80;55.50;;;;;;5002663;28;46832;-64
2022/08/18 01:38:49;;;;;;;12.53;8.90;;;18.60;55.00;;;;;;4997166;28;46618;-64
2022/08/18 01:41:17;;;;;;;13.97;9.87;;;18.60;56.00;;;;;;5000646;28;45830;-65
2022/08/18 01:43:44;;;;;;;13.03;8.40;;;18.50;56.20;;;;;;5002835;28;46704;-64
2022/08/18 01:46:09;;;;;;;12.87;9.03;;;18.40;56.50;;;;;;5001738;28;46472;-63
2022/08/18 01:48:37;;;;;;;15.90;10.33;;;18.30;56.90;;;;;;5000846;28;46450;-63
2022/08/18 01:51:08;;;;;;;14.37;9.90;;;18.20;56.30;;;;;;5000192;28;46703;-64
2022/08/18 01:53:34;;;;;;;14.97;9.00;;;18.10;57.60;;;;;;5000427;28;46264;-63
2022/08/18 01:56:04;;;;;;;14.23;10.23;;;18.00;57.90;;;;;;5001634;28;46332;-64
2022/08/18 01:58:31;;;;;;;14.20;9.20;;;18.00;58.30;;;;;;5000031;28;48688;-63
2022/08/18 02:01:00;;;;;;;13.67;9.40;;;18.00;57.90;;;;;;5003177;28;46411;-63
2022/08/18 02:03:31;;;;;;;14.00;9.33;;;17.90;58.50;;;;;;4982935;28;46183;-63
2022/08/18 02:06:03;;;;;;;12.63;10.17;;;17.90;58.60;;;;;;5003265;28;45881;-64
2022/08/18 02:08:29;;;;;;;12.13;8.30;;;17.90;58.70;;;;;;5003606;28;46355;-64
2022/08/18 02:10:57;;;;;;;16.37;9.67;;;17.90;57.90;;;;;;4999886;28;46587;-63
2022/08/18 02:13:23;;;;;;;14.03;9.73;;;17.80;58.80;;;;;;5000357;28;46334;-65
2022/08/18 02:15:49;;;;;;;14.00;8.70;;;17.80;58.90;;;;;;5000984;28;46717;-63
2022/08/18 02:18:17;;;;;;;16.13;8.57;;;17.90;58.80;;;;;;4999710;28;48360;-63
2022/08/18 02:20:43;;;;;;;12.23;8.80;;;17.80;57.80;;;;;;5001245;28;46714;-63
2022/08/18 02:23:10;;;;;;;12.87;8.70;;;17.80;58.90;;;;;;5000042;28;46420;-63
2022/08/18 02:25:35;;;;;;;16.10;9.23;;;17.80;58.80;;;;;;5001016;28;46612;-63
2022/08/18 02:28:01;;;;;;;14.00;8.83;;;17.70;58.80;;;;;;4999791;28;47193;-64
2022/08/18 02:30:27;;;;;;;12.03;8.07;;;17.70;57.70;;;;;;5000709;28;46465;-64
2022/08/18 02:32:53;;;;;;;12.83;7.67;;;17.70;58.80;;;;;;5001093;28;46386;-64
2022/08/18 02:35:18;;;;;;;12.50;8.97;;;17.70;58.80;;;;;;5001051;28;46427;-63
2022/08/18 02:37:47;;;;;;;12.27;8.70;;;17.60;58.70;;;;;;5000419;28;47080;-64
2022/08/18 02:40:13;;;;;;;10.63;7.80;;;17.60;57.60;;;;;;4978930;28;46813;-64
2022/08/18 02:42:40;;;;;;;11.90;7.30;;;17.60;58.70;;;;;;4999405;28;45919;-64
2022/08/18 02:45:06;;;;;;;12.70;8.63;;;17.60;58.70;;;;;;5000601;28;46309;-63
2022/08/18 02:47:32;;;;;;;12.53;8.03;;;17.60;58.70;;;;;;4996177;28;46709;-64
2022/08/18 02:49:58;;;;;;;12.33;8.80;;;17.50;57.50;;;;;;4999412;28;46554;-64
2022/08/18 02:52:31;;;;;;;12.53;8.37;;;17.50;58.60;;;;;;5001763;28;46364;-63
2022/08/18 02:54:59;;;;;;;11.57;8.23;;;17.50;58.60;;;;;;4999058;28;46453;-63
2022/08/18 02:57:25;;;;;;;12.43;7.93;;;17.50;58.60;;;;;;4995873;28;46424;-63
2022/08/18 02:59:51;;;;;;;11.13;9.03;;;17.50;57.90;;;;;;5001078;28;46385;-63
2022/08/18 03:02:17;;;;;;;14.43;9.50;;;17.50;58.60;;;;;;5001739;28;46229;-63
2022/08/18 03:04:43;;;;;;;11.70;9.17;;;17.40;58.50;;;;;;5001331;28;46377;-63
2022/08/18 03:07:08;;;;;;;18.53;9.90;;;17.40;58.70;;;;;;4999911;28;46274;-63
2022/08/18 03:09:35;;;;;;;10.80;8.97;;;17.40;58.30;;;;;;5001089;28;46364;-66
2022/08/18 03:12:01;;;;;;;17.13;9.40;;;17.40;59.10;;;;;;5000287;28;45871;-65
2022/08/18 03:14:27;;;;;;;14.07;9.00;;;17.40;59.10;;;;;;5000167;28;46638;-64
2022/08/18 03:16:53;;;;;;;13.27;8.93;;;17.40;59.10;;;;;;5000598;28;47060;-64
2022/08/18 03:19:19;;;;;;;13.07;9.23;;;17.40;58.50;;;;;;4998790;28;46446;-64
2022/08/18 03:21:46;;;;;;;13.67;9.70;;;17.40;59.50;;;;;;5001279;28;46427;-63
2022/08/18 03:24:12;;;;;;;14.30;9.40;;;17.40;59.60;;;;;;4999247;28;46637;-62
2022/08/18 03:26:46;;;;;;;14.63;9.20;;;17.40;59.60;;;;;;4998880;28;46383;-63
2022/08/18 03:29:13;;;;;;;13.10;8.80;;;17.30;59.10;;;;;;4999846;28;46353;-64
2022/08/18 03:31:42;;;;;;;12.60;8.90;;;17.30;60.00;;;;;;5000847;28;46205;-64
2022/08/18 03:34:08;;;;;;;12.70;9.67;;;17.20;60.00;;;;;;4999672;28;46406;-63
2022/08/18 03:36:35;;;;;;;18.50;8.87;;;17.10;61.30;;;;;;4999875;28;47195;-63
2022/08/18 03:39:05;;;;;;;19.33;8.87;;;17.10;59.50;;;;;;4998901;28;46345;-63
2022/08/18 03:41:31;;;;;;;11.07;7.67;;;17.10;60.40;;;;;;4994430;28;46594;-64
2022/08/18 03:43:56;;;;;;;25.27;9.50;;;17.00;60.40;;;;;;5000157;28;46458;-63
2022/08/18 03:46:23;;;;;;;18.60;12.00;;;17.00;60.30;;;;;;5000792;28;46487;-63
2022/08/18 03:48:49;;;;;;;16.90;9.53;;;17.10;58.90;;;;;;4999351;28;45796;-62
2022/08/18 03:51:17;;;;;;;13.63;9.70;;;17.10;60.00;;;;;;4998196;28;46451;-63
2022/08/18 03:53:44;;;;;;;13.70;9.50;;;17.10;59.80;;;;;;4998207;28;46597;-63
2022/08/18 03:56:14;;;;;;;13.97;9.50;;;17.10;59.50;;;;;;4998922;28;46586;-63
2022/08/18 03:58:50;;;;;;;15.10;9.97;;;17.10;58.60;;;;;;4998616;28;46606;-64
2022/08/18 04:01:18;;;;;;;13.23;8.93;;;17.20;59.80;;;;;;5001105;28;46458;-63
2022/08/18 04:03:50;;;;;;;13.67;9.73;;;17.10;59.70;;;;;;4999640;28;46356;-62
2022/08/18 04:06:18;;;;;;;12.70;9.43;;;17.10;59.60;;;;;;4999514;28;48251;-62
2022/08/18 04:08:45;;;;;;;16.93;9.63;;;17.10;59.70;;;;;;4997596;28;46449;-63
2022/08/18 04:11:13;;;;;;;22.53;10.40;;;17.10;58.70;;;;;;4999343;28;46245;-64
2022/08/18 04:13:39;;;;;;;12.40;9.20;;;17.10;59.80;;;;;;5000446;28;46471;-63
2022/08/18 04:16:05;;;;;;;13.90;10.10;;;17.10;60.20;;;;;;5000252;28;47138;-63
2022/08/18 04:18:31;;;;;;;18.20;10.90;;;17.20;60.10;;;;;;4998527;28;46381;-63
2022/08/18 04:21:06;;;;;;;18.80;10.47;;;17.20;59.20;;;;;;4999797;28;46417;-63
2022/08/18 04:23:33;;;;;;;16.80;12.27;;;17.20;60.00;;;;;;5000303;28;46934;-65
2022/08/18 04:26:00;;;;;;;14.73;10.90;;;17.30;60.00;;;;;;5000580;28;47283;-64
2022/08/18 04:28:27;;;;;;;16.67;10.97;;;17.30;60.00;;;;;;5000132;28;46503;-63
2022/08/18 04:30:53;;;;;;;14.30;10.93;;;17.40;59.00;;;;;;5000982;28;46423;-63
2022/08/18 04:33:19;;;;;;;18.17;10.37;;;17.50;59.80;;;;;;4999936;28;46385;-63
2022/08/18 04:35:45;;;;;;;13.63;9.83;;;17.60;59.60;;;;;;5000215;28;46324;-63
2022/08/18 04:38:11;;;;;;;14.80;10.03;;;17.70;59.20;;;;;;4999625;28;45982;-63
2022/08/18 04:40:37;;;;;;;17.00;11.13;;;17.80;58.40;;;;;;4995517;28;46374;-63
2022/08/18 04:43:03;;;;;;;15.20;9.70;;;17.90;59.20;;;;;;5000200;28;46586;-64
2022/08/18 04:45:29;;;;;;;17.80;10.70;;;17.90;58.90;;;;;;4996510;28;46996;-63
2022/08/18 04:47:54;;;;;;;19.90;11.20;;;18.00;59.10;;;;;;5002131;28;46202;-63
2022/08/18 04:50:20;;;;;;;15.90;11.03;;;18.10;58.10;;;;;;5002442;28;46504;-64
2022/08/18 04:55:30;;;;;;;15.83;9.40;;;18.20;59.30;;;;;;5002720;28;46462;-63
2022/08/18 04:57:58;;;;;;;15.00;9.67;;;18.30;59.30;;;;;;5001332;28;46465;-64
2022/08/18 05:00:23;;;;;;;18.20;9.60;;;18.40;58.30;;;;;;5001204;28;46413;-64
2022/08/18 05:02:49;;;;;;;11.07;8.37;;;18.40;60.30;;;;;;5004214;28;46146;-64
2022/08/18 05:05:15;;;;;;;14.87;10.40;;;18.50;58.90;;;;;;5002960;28;47263;-64
2022/08/18 05:07:45;;;;;;;14.50;8.50;;;18.80;58.10;;;;;;5002455;28;46345;-65
2022/08/18 05:10:11;;;;;;;15.20;9.13;;;19.40;55.10;;;;;;5001347;28;45809;-63
2022/08/18 05:12:41;;;;;;;11.73;8.90;;;19.80;55.50;;;;;;5002117;28;46379;-64
2022/08/18 05:15:08;;;;;;;17.50;10.33;;;19.60;55.50;;;;;;5002753;28;47753;-62
2022/08/18 05:17:38;;;;;;;16.23;10.10;;;19.50;56.00;;;;;;4999459;28;46245;-64
2022/08/18 05:20:06;;;;;;;13.53;10.47;;;19.40;55.20;;;;;;5001924;28;46394;-63
2022/08/18 05:22:40;;;;;;;16.20;9.67;;;19.50;56.10;;;;;;4998957;28;46454;-66
2022/08/18 05:25:11;;;;;;;13.17;9.90;;;19.50;56.00;;;;;;5002353;28;46311;-63
2022/08/18 05:27:41;;;;;;;12.20;9.70;;;19.40;56.00;;;;;;5000593;28;46376;-63
2022/08/18 05:30:08;;;;;;;13.40;9.70;;;19.40;55.10;;;;;;5002452;28;46308;-65
2022/08/18 05:32:37;;;;;;;13.43;9.03;;;19.40;56.20;;;;;;5001419;28;46516;-64
2022/08/18 05:35:15;;;;;;;12.27;9.37;;;19.30;56.30;;;;;;5001212;28;46574;-63
2022/08/18 05:38:05;;;;;;;13.03;9.17;;;19.30;56.70;;;;;;5000498;28;46391;-63
2022/08/18 05:40:31;;;;;;;13.50;10.17;;;19.30;55.40;;;;;;4999799;28;46459;-64
2022/08/18 05:42:58;;;;;;;13.67;9.37;;;19.20;56.20;;;;;;5002983;28;46490;-64
2022/08/18 05:45:24;;;;;;;12.27;9.17;;;19.20;56.20;;;;;;5001374;28;46485;-63
2022/08/18 05:47:51;;;;;;;11.60;8.90;;;19.20;56.20;;;;;;5001353;28;46398;-63
2022/08/18 05:50:19;;;;;;;14.10;9.77;;;19.20;55.10;;;;;;5002689;28;46781;-65
2022/08/18 05:52:48;;;;;;;24.03;9.83;;;19.20;56.10;;;;;;4999208;28;46736;-63
2022/08/18 05:58:26;;;;;;;15.17;9.63;;;19.20;56.20;;;;;;4994777;28;46363;-65
2022/08/18 06:01:10;;;;;;;14.90;10.00;;;19.20;55.10;;;;;;5001087;28;46444;-65
2022/08/18 06:03:45;;;;;;;15.80;10.70;;;19.20;56.30;;;;;;5000250;28;45897;-63
2022/08/18 06:06:18;;;;;;;14.17;10.20;;;19.30;56.00;;;;;;4984513;28;47925;-65
2022/08/18 06:08:52;;;;;;;13.80;10.40;;;19.30;56.00;;;;;;4998686;28;46431;-66
2022/08/18 06:11:17;;;;;;;14.30;9.93;;;19.30;55.10;;;;;;5000799;28;46644;-67
2022/08/18 06:13:43;;;;;;;12.67;10.00;;;19.30;56.20;;;;;;5000370;28;46414;-64
2022/08/18 06:16:25;;;;;;;14.60;9.20;;;19.30;56.10;;;;;;4995097;28;46433;-61
2022/08/18 06:19:08;;;;;;;13.47;10.30;;;19.30;55.20;;;;;;4998880;28;46266;-66
2022/08/18 06:21:50;;;;;;;12.43;9.30;;;19.30;56.10;;;;;;5000043;28;46456;-66
2022/08/18 06:24:48;;;;;;;14.00;9.30;;;19.40;56.10;;;;;;5000259;28;46524;-66
2022/08/18 06:27:48;;;;;;;14.10;9.33;;;19.40;56.00;;;;;;4988864;28;46099;-67
2022/08/18 06:30:31;;;;;;;15.30;9.53;;;19.60;54.50;;;;;;4998955;28;46390;-66
2022/08/18 06:33:05;;;;;;;13.70;8.80;;;19.60;55.30;;;;;;4998259;28;46642;-66
2022/08/18 06:35:40;;;;;;;11.13;8.43;;;20.00;55.50;;;;;;4998885;28;46358;-66
2022/08/18 06:41:12;;;;;;;11.53;8.60;;;19.60;54.30;;;;;;4997361;28;46503;-67
2022/08/18 06:44:00;;;;;;;12.30;9.30;;;19.60;55.30;;;;;;5001307;28;46478;-65
2022/08/18 06:46:40;;;;;;;15.60;9.70;;;19.60;55.50;;;;;;4983384;28;46352;-65
2022/08/18 06:49:10;;;;;;;11.80;8.87;;;19.60;54.60;;;;;;4997871;28;46604;-67
2022/08/18 06:51:36;;;;;;;11.07;8.30;;;19.60;55.50;;;;;;4997526;28;46300;-66
2022/08/18 06:54:25;;;;;;;14.80;8.50;;;19.60;55.60;;;;;;4998787;28;45949;-68
2022/08/18 06:56:53;;;;;;;11.70;9.30;;;19.70;55.10;;;;;;4996553;28;46471;-66
2022/08/18 06:59:29;;;;;;;11.80;9.37;;;20.20;53.20;;;;;;4999992;28;46531;-66
2022/08/18 07:02:18;;;;;;;13.17;9.20;;;20.20;54.00;;;;;;4996738;28;46966;-66
2022/08/18 07:05:04;;;;;;;9.70;6.87;;;20.60;53.20;;;;;;4999427;28;46399;-64
2022/08/18 07:07:38;;;;;;;11.77;7.80;;;21.10;52.00;;;;;;4997688;28;46535;-67
2022/08/18 07:10:32;;;;;;;11.07;7.70;;;21.60;49.60;;;;;;4998971;28;46514;-66
2022/08/18 07:13:19;;;;;;;12.17;8.23;;;21.70;50.40;;;;;;4988766;28;46384;-67
2022/08/18 07:15:46;;;;;;;8.87;6.77;;;21.80;49.80;;;;;;4999305;28;46411;-66
2022/08/18 07:18:15;;;;;;;11.93;7.60;;;22.00;49.50;;;;;;4997213;28;47781;-66
2022/08/18 07:20:53;;;;;;;10.43;7.17;;;22.20;48.20;;;;;;4998368;28;46284;-67
2022/08/18 07:23:38;;;;;;;10.97;7.70;;;22.30;48.50;;;;;;4999029;28;46406;-67
2022/08/18 07:26:14;;;;;;;9.60;7.40;;;22.40;47.60;;;;;;4998957;28;46653;-66
2022/08/18 07:28:43;;;;;;;9.13;6.73;;;22.50;47.50;;;;;;4998101;28;46530;-67
2022/08/18 07:31:24;;;;;;;8.23;6.33;;;22.30;46.60;;;;;;4997696;28;46460;-65
2022/08/18 07:34:01;;;;;;;13.07;6.90;;;22.20;46.60;;;;;;4997631;28;46472;-67
2022/08/18 07:36:32;;;;;;;8.87;6.53;;;22.20;47.50;;;;;;4998730;28;46448;-66
2022/08/18 07:39:10;;;;;;;13.47;8.53;;;22.20;46.40;;;;;;4998185;28;46423;-66
2022/08/18 07:41:47;;;;;;;10.70;7.27;;;22.20;47.20;;;;;;4996713;28;47175;-67
2022/08/18 07:44:33;;;;;;;12.17;7.30;;;22.40;46.70;;;;;;4999015;28;46671;-66
2022/08/18 07:47:05;;;;;;;12.97;7.00;;;22.50;46.50;;;;;;4998369;28;46383;-66
2022/08/18 07:49:35;;;;;;;11.63;7.27;;;22.60;45.10;;;;;;4999355;28;46470;-67
2022/08/18 07:52:23;;;;;;;9.73;7.20;;;22.60;45.90;;;;;;4997025;28;46785;-66
2022/08/18 07:55:27;;;;;;;12.03;6.97;;;22.60;45.60;;;;;;4996554;28;46347;-68
2022/08/18 07:58:05;;;;;;;8.87;5.30;;;22.60;45.80;;;;;;4997466;28;46348;-67
2022/08/18 08:00:44;;;;;;;8.90;6.83;;;22.70;44.30;;;;;;4996547;28;46465;-65
2022/08/18 08:03:41;;;;;;;8.53;6.63;;;22.80;45.30;;;;;;4996943;28;46728;-66
2022/08/18 08:06:22;;;;;;;9.53;6.90;;;23.00;44.60;;;;;;4996739;28;46336;-65
2022/08/18 08:09:19;;;;;;;8.77;6.67;;;23.30;42.80;;;;;;4996773;28;46608;-66
2022/08/18 08:12:17;;;;;;;9.10;5.60;;;23.20;43.60;;;;;;4997253;28;46423;-67
2022/08/18 08:14:48;;;;;;;8.23;6.17;;;23.20;43.40;;;;;;4995569;28;47359;-67
2022/08/18 08:17:29;;;;;;;8.60;6.47;;;23.20;43.20;;;;;;4995401;28;46335;-66
2022/08/18 08:20:20;;;;;;;7.70;5.43;;;23.50;41.10;;;;;;4995874;28;46385;-67
2022/08/18 08:22:52;;;;;;;7.97;5.63;;;23.60;41.80;;;;;;4993990;28;46519;-65
2022/08/18 08:25:21;;;;;;;7.60;5.90;;;23.60;41.40;;;;;;5000674;28;46359;-66
2022/08/18 08:28:01;;;;;;;9.07;6.00;;;23.50;41.40;;;;;;4998532;28;46461;-66
2022/08/18 08:30:30;;;;;;;10.07;6.33;;;23.60;40.20;;;;;;4999105;28;46447;-66
2022/08/18 08:33:14;;;;;;;9.97;7.53;;;23.60;41.30;;;;;;4996933;28;46725;-67
2022/08/18 08:35:55;;;;;;;9.93;6.53;;;23.70;40.80;;;;;;5001368;28;46635;-67
2022/08/18 08:38:51;;;;;;;11.13;6.57;;;23.80;40.50;;;;;;4999372;28;46258;-69
2022/08/18 08:41:29;;;;;;;9.83;6.50;;;24.00;39.10;;;;;;4994965;28;46467;-66
2022/08/18 08:44:09;;;;;;;7.70;5.70;;;24.20;39.90;;;;;;4999452;28;46404;-66
2022/08/18 08:46:58;;;;;;;11.23;7.23;;;24.20;39.80;;;;;;4999541;28;46014;-66
2022/08/18 08:49:28;;;;;;;12.27;6.33;;;24.50;38.20;;;;;;4998880;28;46430;-65
2022/08/18 08:51:58;;;;;;;9.07;6.90;;;24.50;39.00;;;;;;4999826;28;46418;-66
2022/08/18 08:54:37;;;;;;;9.43;7.30;;;24.50;39.40;;;;;;4999571;28;46478;-66
2022/08/18 08:57:04;;;;;;;12.80;7.20;;;24.50;38.90;;;;;;5000152;28;48009;-66
2022/08/18 08:59:30;;;;;;;9.13;6.87;;;24.90;37.50;;;;;;4998237;28;46483;-67
2022/08/18 09:01:58;;;;;;;8.20;6.47;;;24.90;38.60;;;;;;4996955;28;46873;-65
2022/08/18 09:05:01;;;;;;;11.73;7.13;;;25.10;38.30;;;;;;5000428;28;46325;-67
2022/08/18 09:07:48;;;;;;;8.77;6.10;;;25.40;37.50;;;;;;4999172;28;46649;-65
2022/08/18 09:10:44;;;;;;;8.23;6.27;;;25.40;34.00;;;;;;4998247;28;46644;-68
2022/08/18 09:13:32;;;;;;;9.57;6.40;;;25.40;34.90;;;;;;5000054;28;46428;-68
2022/08/18 09:16:07;;;;;;;9.30;6.77;;;25.80;34.40;;;;;;4998084;28;46629;-67
2022/08/18 09:18:38;;;;;;;8.90;6.17;;;26.10;33.30;;;;;;4997335;28;47145;-66
2022/08/18 09:21:34;;;;;;;8.40;6.27;;;26.00;31.40;;;;;;4996600;28;46421;-65
2022/08/18 09:24:25;;;;;;;10.20;6.20;;;25.60;31.40;;;;;;5000590;28;46362;-67
2022/08/18 09:27:02;;;;;;;9.80;6.23;;;26.00;30.00;;;;;;4996779;28;46408;-66
2022/08/18 09:29:37;;;;;;;11.93;6.63;;;26.70;27.60;;;;;;4998406;28;47189;-67
2022/08/18 09:32:18;;;;;;;7.53;5.33;;;26.70;28.00;;;;;;4997963;28;46653;-66
2022/08/18 09:35:22;;;;;;;9.30;5.80;;;26.80;27.00;;;;;;4999825;28;46470;-67
2022/08/18 09:44:10;;;;;;;10.33;6.70;;;25.90;27.50;;;;;;4999869;28;46487;-67
2022/08/18 09:46:41;;;;;;;11.80;6.77;;;25.90;28.30;;;;;;4999761;28;46298;-66
2022/08/18 09:49:23;;;;;;;14.40;7.60;;;25.40;28.40;;;;;;5001008;28;46535;-65
2022/08/18 09:51:52;;;;;;;15.80;8.80;;;25.40;29.30;;;;;;4997442;28;47618;-65
2022/08/18 09:54:24;;;;;;;11.10;8.50;;;25.40;29.50;;;;;;4998871;28;46474;-66
2022/08/18 09:56:49;;;;;;;11.13;8.63;;;25.60;28.60;;;;;;4996432;28;46361;-66
2022/08/18 09:59:36;;;;;;;12.50;8.70;;;25.40;28.50;;;;;;5001072;28;46706;-67
2022/08/18 10:02:22;;;;;;;12.07;7.90;;;25.30;29.20;;;;;;4997191;28;47102;-67
2022/08/18 10:04:49;;;;;;;11.00;7.67;;;25.40;28.90;;;;;;4998339;28;46403;-66
2022/08/18 10:07:29;;;;;;;15.60;8.17;;;25.60;28.70;;;;;;4997995;28;46406;-67
2022/08/18 10:10:33;;;;;;;11.77;8.47;;;25.60;27.80;;;;;;4999588;28;46461;-66
2022/08/18 10:13:01;;;;;;;13.83;8.60;;;25.70;29.00;;;;;;4999103;28;46308;-66
2022/08/18 10:16:06;;;;;;;13.27;10.73;;;26.00;28.70;;;;;;4997969;28;46605;-66
2022/08/18 10:19:05;;;;;;;11.00;8.70;;;26.10;28.40;;;;;;4926436;28;47166;-66
2022/08/18 10:21:57;;;;;;;12.53;8.90;;;25.90;27.50;;;;;;4988863;28;46554;-66
2022/08/18 10:24:54;;;;;;;11.53;8.37;;;26.00;28.10;;;;;;4996672;28;46941;-68
2022/08/18 10:27:45;;;;;;;10.03;7.77;;;26.50;27.70;;;;;;4997985;28;46644;-67
2022/08/18 10:30:32;;;;;;;10.13;8.57;;;27.00;26.20;;;;;;4998905;28;46243;-68
2022/08/18 10:33:06;;;;;;;11.00;8.17;;;26.90;27.00;;;;;;4996864;28;46908;-67
2022/08/18 10:35:37;;;;;;;12.90;9.00;;;26.80;26.90;;;;;;4998620;28;46368;-68
2022/08/18 10:38:17;;;;;;;10.17;7.13;;;26.60;26.80;;;;;;4997500;28;46439;-67
2022/08/18 10:41:02;;;;;;;14.80;9.40;;;25.80;26.70;;;;;;4996242;28;45859;-65
2022/08/18 10:43:42;;;;;;;13.37;8.20;;;25.80;27.70;;;;;;4998677;28;46638;-65
2022/08/18 10:46:22;;;;;;;10.30;7.43;;;25.50;28.10;;;;;;4998981;28;46356;-65
2022/08/18 10:49:06;;;;;;;12.57;8.20;;;25.70;27.10;;;;;;4998433;28;46466;-65
2022/08/18 10:52:05;;;;;;;10.70;8.67;;;25.60;27.80;;;;;;4998900;28;46478;-65
2022/08/18 10:55:05;;;;;;;11.10;7.80;;;25.90;27.30;;;;;;4999535;28;47320;-67
2022/08/18 10:58:15;;;;;;;11.03;8.03;;;26.30;27.10;;;;;;4999043;28;46667;-67
2022/08/18 11:00:44;;;;;;;9.80;7.97;;;26.90;26.10;;;;;;4997974;28;46387;-66
2022/08/18 11:03:30;;;;;;;10.60;7.43;;;27.20;26.10;;;;;;4998548;28;46410;-68
2022/08/18 11:06:03;;;;;;;14.13;7.87;;;27.60;24.90;;;;;;4998521;28;46535;-68
2022/08/18 11:08:41;;;;;;;14.93;7.40;;;28.00;24.10;;;;;;4997327;28;46476;-67
2022/08/18 11:11:09;;;;;;;9.30;7.07;;;28.00;22.70;;;;;;4995702;28;46805;-65
2022/08/18 11:13:59;;;;;;;9.00;6.90;;;28.00;23.60;;;;;;4999736;28;46482;-66
2022/08/18 11:16:34;;;;;;;9.27;6.90;;;27.30;24.20;;;;;;4998447;28;46507;-66
2022/08/18 11:19:13;;;;;;;13.10;7.70;;;26.90;24.50;;;;;;4997248;28;47918;-67
2022/08/18 11:21:43;;;;;;;9.97;6.93;;;26.90;25.10;;;;;;4996932;28;47307;-68
2022/08/18 11:24:11;;;;;;;13.53;8.07;;;26.40;25.90;;;;;;4996273;28;46547;-66
2022/08/18 11:26:48;;;;;;;11.23;7.33;;;26.30;25.90;;;;;;4998239;28;46861;-65
2022/08/18 11:29:36;;;;;;;14.00;8.83;;;26.60;24.50;;;;;;4996514;28;46528;-66
2022/08/18 11:32:19;;;;;;;12.27;8.00;;;26.60;26.10;;;;;;4996245;28;46339;-65
2022/08/18 11:34:58;;;;;;;11.00;7.60;;;26.90;24.80;;;;;;4999512;28;46426;-65
2022/08/18 11:38:00;;;;;;;11.83;8.60;;;27.10;24.30;;;;;;4995413;28;46751;-67
2022/08/18 11:40:30;;;;;;;9.40;7.97;;;27.20;23.00;;;;;;4995630;28;46526;-70
2022/08/18 11:43:25;;;;;;;9.93;8.13;;;27.20;23.70;;;;;;4994980;28;46837;-66
2022/08/18 11:45:54;;;;;;;12.17;8.87;;;27.10;24.00;;;;;;4994206;28;46963;-66
2022/08/18 11:48:47;;;;;;;11.60;8.50;;;26.90;24.20;;;;;;4996890;28;45937;-66
2022/08/18 11:51:23;;;;;;;13.73;10.70;;;26.60;23.50;;;;;;4994721;28;46513;-63
2022/08/18 11:54:20;;;;;;;17.60;10.90;;;26.70;24.50;;;;;;4997164;28;46368;-65
2022/08/18 11:56:46;;;;;;;12.27;9.70;;;26.80;24.20;;;;;;4995239;28;46567;-66
2022/08/18 11:59:24;;;;;;;19.47;11.03;;;26.20;24.30;;;;;;4997708;28;46499;-67
2022/08/18 12:01:58;;;;;;;16.60;10.77;;;26.20;25.40;;;;;;4993031;28;46446;-66
2022/08/18 12:04:36;;;;;;;17.83;10.53;;;25.80;26.40;;;;;;4996397;28;46709;-65
2022/08/18 12:07:09;;;;;;;10.97;8.30;;;25.50;26.20;;;;;;4998797;28;46419;-67
2022/08/18 12:09:47;;;;;;;10.57;7.70;;;25.80;25.50;;;;;;4996482;28;46722;-66
2022/08/18 12:12:22;;;;;;;11.87;9.00;;;25.90;25.80;;;;;;4994293;28;46133;-66
2022/08/18 12:14:52;;;;;;;11.70;8.47;;;25.90;25.40;;;;;;4998171;28;46772;-65
2022/08/18 12:17:18;;;;;;;12.53;8.20;;;26.00;25.10;;;;;;5000895;28;45756;-66
2022/08/18 12:19:44;;;;;;;16.40;9.97;;;26.20;23.80;;;;;;4998074;28;46571;-66
2022/08/18 12:22:19;;;;;;;21.23;9.90;;;26.20;24.80;;;;;;4991584;28;46755;-66
2022/08/18 12:24:46;;;;;;;14.70;9.60;;;26.20;24.50;;;;;;4994824;28;45999;-68
2022/08/18 12:27:16;;;;;;;14.50;9.73;;;25.90;24.80;;;;;;4994523;28;46464;-66
2022/08/18 12:29:42;;;;;;;12.00;9.10;;;26.00;24.20;;;;;;4998565;28;47389;-65
2022/08/18 12:32:08;;;;;;;10.10;7.63;;;26.10;25.00;;;;;;4995290;28;47152;-66
2022/08/18 12:34:34;;;;;;;14.57;8.27;;;26.30;24.70;;;;;;4994516;28;46312;-66
2022/08/18 12:37:00;;;;;;;18.70;9.43;;;26.40;24.10;;;;;;4997628;28;46470;-67
2022/08/18 12:39:28;;;;;;;13.97;9.13;;;26.60;22.40;;;;;;4996502;28;46438;-67
2022/08/18 12:41:54;;;;;;;13.47;9.30;;;26.70;23.30;;;;;;4995890;28;46530;-67
2022/08/18 12:44:20;;;;;;;12.17;8.60;;;26.70;23.50;;;;;;4993471;28;46541;-67
2022/08/18 12:46:46;;;;;;;14.33;9.60;;;26.60;23.60;;;;;;4997517;28;46480;-66
2022/08/18 12:49:20;;;;;;;16.87;11.13;;;26.30;23.20;;;;;;4998213;28;46460;-68
2022/08/18 12:51:46;;;;;;;13.37;9.17;;;26.30;24.10;;;;;;4994809;28;46057;-66
2022/08/18 12:54:12;;;;;;;11.50;9.47;;;26.70;23.50;;;;;;4996967;28;46572;-66
2022/08/18 12:56:39;;;;;;;12.90;8.83;;;27.00;22.90;;;;;;4996669;28;45811;-67
2022/08/18 12:59:07;;;;;;;16.57;8.40;;;27.30;21.60;;;;;;4997344;28;46669;-67
2022/08/18 13:01:34;;;;;;;14.40;7.93;;;27.30;22.30;;;;;;4994795;28;47079;-68
2022/08/18 13:04:00;;;;;;;12.07;9.07;;;27.30;22.10;;;;;;4995553;28;46444;-67
2022/08/18 13:06:26;;;;;;;13.30;8.50;;;27.30;22.00;;;;;;4998361;28;45853;-68
2022/08/18 13:08:54;;;;;;;14.27;11.00;;;;;;;;;;5001573;28;46523;-67
2022/08/18 13:11:21;;;;;;;10.60;8.90;;;27.60;20.70;;;;;;4996105;28;47285;-68
2022/08/18 13:13:47;;;;;;;11.20;8.10;;;27.70;21.40;;;;;;4997080;28;46462;-68
2022/08/18 13:16:13;;;;;;;10.47;7.37;;;27.60;21.40;;;;;;5001327;28;46733;-65
2022/08/18 13:18:40;;;;;;;17.00;9.27;;;27.50;21.70;;;;;;5000962;28;46459;-66
2022/08/18 13:21:07;;;;;;;11.63;7.93;;;27.40;20.80;;;;;;4997072;28;46557;-67
2022/08/18 13:23:32;;;;;;;13.27;9.63;;;27.40;21.80;;;;;;4999477;28;46544;-68
2022/08/18 13:26:00;;;;;;;10.67;8.63;;;27.80;21.30;;;;;;5000529;28;46503;-67
2022/08/18 13:28:26;;;;;;;11.27;8.90;;;27.80;20.90;;;;;;5001059;28;46445;-67
2022/08/18 13:30:53;;;;;;;12.80;7.90;;;27.90;19.90;;;;;;4999729;28;46445;-68